sensor_id;sensor_type;location;lat;lon;timestamp;P1;durP1;ratioP1;P2;durP2;ratioP2
17520;SDS011;8878;-33.370;-70.552;2022-09-11T00:02:02;3.67;;;2.97;;
17520;SDS011;8878;-33.370;-70.552;2022-09-11T00:04:31;5.67;;;2.57;;
17520;SDS011;8878;-33.370;-70.552;2022-09-11T00:07:02;2.37;;;1.73;;
17520;SDS011;8878;-33.370;-70.552;2022-09-11T00:09:32;3.70;;;3.40;;
17520;SDS011;8878;-33.370;-70.552;2022-09-11T00:12:01;3.03;;;2.83;;
17520;SDS011;8878;-33.370;-70.552;2022-09-11T00:14:32;3.63;;;2.20;;
17520;SDS011;8878;-33.370;-70.552;2022-09-11T00:17:01;2.07;;;1.87;;
17520;SDS011;8878;-33.370;-70.552;2022-09-11T00:19:30;1.83;;;1.70;;
17520;SDS011;8878;-33.370;-70.552;2022-09-11T00:22:00;4.73;;;1.87;;
17520;SDS011;8878;-33.370;-70.552;2022-09-11T00:24:31;8.30;;;3.63;;
17520;SDS011;8878;-33.370;-70.552;2022-09-11T00:27:01;11.43;;;3.50;;
17520;SDS011;8878;-33.370;-70.552;2022-09-11T00:29:30;7.30;;;2.10;;
17520;SDS011;8878;-33.370;-70.552;2022-09-11T00:32:00;5.97;;;2.70;;
17520;SDS011;8878;-33.370;-70.552;2022-09-11T00:34:30;4.37;;;2.60;;
17520;SDS011;8878;-33.370;-70.552;2022-09-11T00:36:59;6.77;;;3.40;;
17520;SDS011;8878;-33.370;-70.552;2022-09-11T00:39:30;4.17;;;2.80;;
17520;SDS011;8878;-33.370;-70.552;2022-09-11T00:42:00;25.63;;;2.70;;
17520;SDS011;8878;-33.370;-70.552;2022-09-11T00:47:25;1.83;;;1.73;;
17520;SDS011;8878;-33.370;-70.552;2022-09-11T00:49:56;3.53;;;2.33;;
17520;SDS011;8878;-33.370;-70.552;2022-09-11T00:52:37;2.93;;;2.37;;
17520;SDS011;8878;-33.370;-70.552;2022-09-11T00:55:09;3.30;;;2.63;;
17520;SDS011;8878;-33.370;-70.552;2022-09-11T00:57:42;5.13;;;2.47;;
17520;SDS011;8878;-33.370;-70.552;2022-09-11T01:00:14;4.10;;;2.50;;
17520;SDS011;8878;-33.370;-70.552;2022-09-11T01:02:45;8.80;;;2.57;;
17520;SDS011;8878;-33.370;-70.552;2022-09-11T01:05:16;7.57;;;3.53;;
17520;SDS011;8878;-33.370;-70.552;2022-09-11T01:07:48;2.57;;;2.03;;
17520;SDS011;8878;-33.370;-70.552;2022-09-11T01:10:22;7.63;;;2.53;;
17520;SDS011;8878;-33.370;-70.552;2022-09-11T01:13:04;5.03;;;2.90;;
17520;SDS011;8878;-33.370;-70.552;2022-09-11T01:15:39;2.87;;;2.60;;
17520;SDS011;8878;-33.370;-70.552;2022-09-11T01:18:16;6.23;;;2.60;;
17520;SDS011;8878;-33.370;-70.552;2022-09-11T01:20:59;1.83;;;1.73;;
17520;SDS011;8878;-33.370;-70.552;2022-09-11T01:26:59;3.03;;;1.80;;
17520;SDS011;8878;-33.370;-70.552;2022-09-11T01:29:47;5.20;;;2.87;;
17520;SDS011;8878;-33.370;-70.552;2022-09-11T01:32:20;5.83;;;3.13;;
17520;SDS011;8878;-33.370;-70.552;2022-09-11T01:34:57;3.77;;;2.50;;
17520;SDS011;8878;-33.370;-70.552;2022-09-11T01:37:40;2.63;;;2.43;;
17520;SDS011;8878;-33.370;-70.552;2022-09-11T01:40:16;4.50;;;2.63;;
17520;SDS011;8878;-33.370;-70.552;2022-09-11T01:42:51;6.40;;;2.87;;
17520;SDS011;8878;-33.370;-70.552;2022-09-11T01:45:28;8.83;;;3.37;;
17520;SDS011;8878;-33.370;-70.552;2022-09-11T01:47:58;2.80;;;2.60;;
17520;SDS011;8878;-33.370;-70.552;2022-09-11T01:50:29;5.20;;;2.73;;
17520;SDS011;8878;-33.370;-70.552;2022-09-11T01:53:00;12.90;;;1.97;;
17520;SDS011;8878;-33.370;-70.552;2022-09-11T01:55:35;3.60;;;3.23;;
17520;SDS011;8878;-33.370;-70.552;2022-09-11T01:58:07;3.63;;;3.27;;
17520;SDS011;8878;-33.370;-70.552;2022-09-11T02:00:40;6.03;;;2.40;;
17520;SDS011;8878;-33.370;-70.552;2022-09-11T02:03:15;3.90;;;2.33;;
17520;SDS011;8878;-33.370;-70.552;2022-09-11T02:05:50;3.67;;;1.90;;
17520;SDS011;8878;-33.370;-70.552;2022-09-11T02:08:24;6.20;;;3.53;;
17520;SDS011;8878;-33.370;-70.552;2022-09-11T02:10:57;4.97;;;2.60;;
17520;SDS011;8878;-33.370;-70.552;2022-09-11T02:13:33;6.70;;;3.07;;
17520;SDS011;8878;-33.370;-70.552;2022-09-11T02:16:12;4.07;;;2.40;;
17520;SDS011;8878;-33.370;-70.552;2022-09-11T02:18:50;7.10;;;3.67;;
17520;SDS011;8878;-33.370;-70.552;2022-09-11T02:21:25;2.97;;;2.53;;
17520;SDS011;8878;-33.370;-70.552;2022-09-11T02:23:55;6.40;;;3.77;;
17520;SDS011;8878;-33.370;-70.552;2022-09-11T02:26:28;5.23;;;2.87;;
17520;SDS011;8878;-33.370;-70.552;2022-09-11T02:29:01;12.37;;;3.10;;
17520;SDS011;8878;-33.370;-70.552;2022-09-11T02:31:32;3.90;;;3.20;;
17520;SDS011;8878;-33.370;-70.552;2022-09-11T02:34:02;5.63;;;2.30;;
17520;SDS011;8878;-33.370;-70.552;2022-09-11T02:36:35;3.00;;;2.60;;
17520;SDS011;8878;-33.370;-70.552;2022-09-11T02:39:20;4.50;;;3.03;;
17520;SDS011;8878;-33.370;-70.552;2022-09-11T02:42:03;4.40;;;2.27;;
17520;SDS011;8878;-33.370;-70.552;2022-09-11T02:44:45;5.17;;;2.67;;
17520;SDS011;8878;-33.370;-70.552;2022-09-11T02:47:27;3.60;;;2.53;;
17520;SDS011;8878;-33.370;-70.552;2022-09-11T02:50:09;3.77;;;3.37;;
17520;SDS011;8878;-33.370;-70.552;2022-09-11T02:52:50;2.47;;;2.07;;
17520;SDS011;8878;-33.370;-70.552;2022-09-11T02:55:25;3.23;;;2.17;;
17520;SDS011;8878;-33.370;-70.552;2022-09-11T02:58:06;6.97;;;3.63;;
17520;SDS011;8878;-33.370;-70.552;2022-09-11T03:00:42;4.67;;;2.90;;
17520;SDS011;8878;-33.370;-70.552;2022-09-11T03:03:14;3.27;;;2.70;;
17520;SDS011;8878;-33.370;-70.552;2022-09-11T03:05:46;4.90;;;2.87;;
17520;SDS011;8878;-33.370;-70.552;2022-09-11T03:08:16;2.30;;;2.20;;
17520;SDS011;8878;-33.370;-70.552;2022-09-11T03:10:45;2.77;;;2.57;;
17520;SDS011;8878;-33.370;-70.552;2022-09-11T03:13:15;2.47;;;1.80;;
17520;SDS011;8878;-33.370;-70.552;2022-09-11T03:15:44;3.60;;;3.30;;
17520;SDS011;8878;-33.370;-70.552;2022-09-11T03:18:15;7.63;;;2.87;;
17520;SDS011;8878;-33.370;-70.552;2022-09-11T03:20:45;1.97;;;1.47;;
17520;SDS011;8878;-33.370;-70.552;2022-09-11T03:23:14;2.97;;;2.40;;
17520;SDS011;8878;-33.370;-70.552;2022-09-11T03:25:44;2.57;;;2.37;;
17520;SDS011;8878;-33.370;-70.552;2022-09-11T03:28:13;5.40;;;1.50;;
17520;SDS011;8878;-33.370;-70.552;2022-09-11T03:30:42;4.27;;;2.03;;
17520;SDS011;8878;-33.370;-70.552;2022-09-11T03:33:12;3.17;;;2.53;;
17520;SDS011;8878;-33.370;-70.552;2022-09-11T03:35:43;3.00;;;2.63;;
17520;SDS011;8878;-33.370;-70.552;2022-09-11T03:38:13;7.93;;;2.10;;
17520;SDS011;8878;-33.370;-70.552;2022-09-11T03:40:43;10.73;;;2.00;;
17520;SDS011;8878;-33.370;-70.552;2022-09-11T03:43:12;5.77;;;2.30;;
17520;SDS011;8878;-33.370;-70.552;2022-09-11T03:45:42;1.80;;;1.70;;
17520;SDS011;8878;-33.370;-70.552;2022-09-11T03:48:12;4.80;;;2.37;;
17520;SDS011;8878;-33.370;-70.552;2022-09-11T03:50:41;2.90;;;2.50;;
17520;SDS011;8878;-33.370;-70.552;2022-09-11T03:53:12;4.27;;;2.17;;
17520;SDS011;8878;-33.370;-70.552;2022-09-11T03:55:43;4.30;;;3.13;;
17520;SDS011;8878;-33.370;-70.552;2022-09-11T03:58:14;5.90;;;2.40;;
17520;SDS011;8878;-33.370;-70.552;2022-09-11T04:00:45;2.13;;;1.63;;
17520;SDS011;8878;-33.370;-70.552;2022-09-11T04:03:15;5.07;;;2.33;;
17520;SDS011;8878;-33.370;-70.552;2022-09-11T04:05:55;1.90;;;1.80;;
17520;SDS011;8878;-33.370;-70.552;2022-09-11T04:08:26;3.57;;;2.57;;
17520;SDS011;8878;-33.370;-70.552;2022-09-11T04:10:58;3.90;;;2.30;;
17520;SDS011;8878;-33.370;-70.552;2022-09-11T04:13:29;3.37;;;2.87;;
17520;SDS011;8878;-33.370;-70.552;2022-09-11T04:16:00;10.20;;;3.10;;
17520;SDS011;8878;-33.370;-70.552;2022-09-11T04:18:32;2.57;;;2.47;;
17520;SDS011;8878;-33.370;-70.552;2022-09-11T04:21:05;5.07;;;3.30;;
17520;SDS011;8878;-33.370;-70.552;2022-09-11T04:23:35;2.30;;;1.57;;
17520;SDS011;8878;-33.370;-70.552;2022-09-11T04:26:11;2.83;;;1.73;;
17520;SDS011;8878;-33.370;-70.552;2022-09-11T04:28:42;8.37;;;3.20;;
17520;SDS011;8878;-33.370;-70.552;2022-09-11T04:31:13;3.67;;;2.40;;
17520;SDS011;8878;-33.370;-70.552;2022-09-11T04:33:43;5.77;;;2.93;;
17520;SDS011;8878;-33.370;-70.552;2022-09-11T04:36:15;5.10;;;3.63;;
17520;SDS011;8878;-33.370;-70.552;2022-09-11T04:38:46;3.87;;;2.67;;
17520;SDS011;8878;-33.370;-70.552;2022-09-11T04:41:15;2.40;;;2.20;;
17520;SDS011;8878;-33.370;-70.552;2022-09-11T04:43:45;7.17;;;3.67;;
17520;SDS011;8878;-33.370;-70.552;2022-09-11T04:46:15;5.60;;;2.60;;
17520;SDS011;8878;-33.370;-70.552;2022-09-11T04:48:45;4.07;;;2.90;;
17520;SDS011;8878;-33.370;-70.552;2022-09-11T04:51:19;5.30;;;2.70;;
17520;SDS011;8878;-33.370;-70.552;2022-09-11T04:53:49;2.27;;;2.07;;
17520;SDS011;8878;-33.370;-70.552;2022-09-11T04:56:22;2.90;;;2.20;;
17520;SDS011;8878;-33.370;-70.552;2022-09-11T04:58:54;2.63;;;2.27;;
17520;SDS011;8878;-33.370;-70.552;2022-09-11T05:01:25;7.00;;;3.27;;
17520;SDS011;8878;-33.370;-70.552;2022-09-11T05:03:56;3.93;;;2.23;;
17520;SDS011;8878;-33.370;-70.552;2022-09-11T05:06:28;8.03;;;4.10;;
17520;SDS011;8878;-33.370;-70.552;2022-09-11T05:09:00;9.53;;;2.20;;
17520;SDS011;8878;-33.370;-70.552;2022-09-11T05:11:31;6.30;;;2.27;;
17520;SDS011;8878;-33.370;-70.552;2022-09-11T05:14:01;6.77;;;4.37;;
17520;SDS011;8878;-33.370;-70.552;2022-09-11T05:16:31;5.83;;;2.30;;
17520;SDS011;8878;-33.370;-70.552;2022-09-11T05:19:01;2.97;;;2.70;;
17520;SDS011;8878;-33.370;-70.552;2022-09-11T05:21:32;5.23;;;3.40;;
17520;SDS011;8878;-33.370;-70.552;2022-09-11T05:24:02;3.43;;;2.87;;
17520;SDS011;8878;-33.370;-70.552;2022-09-11T05:26:32;2.93;;;2.67;;
17520;SDS011;8878;-33.370;-70.552;2022-09-11T05:29:04;5.33;;;3.63;;
17520;SDS011;8878;-33.370;-70.552;2022-09-11T05:31:34;13.20;;;3.93;;
17520;SDS011;8878;-33.370;-70.552;2022-09-11T05:34:04;2.07;;;1.87;;
17520;SDS011;8878;-33.370;-70.552;2022-09-11T05:36:35;6.93;;;3.30;;
17520;SDS011;8878;-33.370;-70.552;2022-09-11T05:39:06;6.17;;;3.10;;
17520;SDS011;8878;-33.370;-70.552;2022-09-11T05:41:36;7.97;;;3.10;;
17520;SDS011;8878;-33.370;-70.552;2022-09-11T05:44:05;4.03;;;2.77;;
17520;SDS011;8878;-33.370;-70.552;2022-09-11T05:46:35;6.00;;;3.83;;
17520;SDS011;8878;-33.370;-70.552;2022-09-11T05:49:04;3.90;;;3.20;;
17520;SDS011;8878;-33.370;-70.552;2022-09-11T05:51:35;7.47;;;3.87;;
17520;SDS011;8878;-33.370;-70.552;2022-09-11T05:54:06;4.33;;;3.50;;
17520;SDS011;8878;-33.370;-70.552;2022-09-11T05:56:35;8.47;;;3.73;;
17520;SDS011;8878;-33.370;-70.552;2022-09-11T05:59:09;6.50;;;4.90;;
17520;SDS011;8878;-33.370;-70.552;2022-09-11T06:01:43;11.40;;;4.23;;
17520;SDS011;8878;-33.370;-70.552;2022-09-11T06:04:12;12.70;;;3.53;;
17520;SDS011;8878;-33.370;-70.552;2022-09-11T06:06:45;6.53;;;3.03;;
17520;SDS011;8878;-33.370;-70.552;2022-09-11T06:09:14;5.60;;;2.77;;
17520;SDS011;8878;-33.370;-70.552;2022-09-11T06:11:44;4.33;;;3.17;;
17520;SDS011;8878;-33.370;-70.552;2022-09-11T06:14:14;4.07;;;2.77;;
17520;SDS011;8878;-33.370;-70.552;2022-09-11T06:16:43;3.87;;;3.20;;
17520;SDS011;8878;-33.370;-70.552;2022-09-11T06:19:14;8.27;;;3.33;;
17520;SDS011;8878;-33.370;-70.552;2022-09-11T06:21:45;3.50;;;2.67;;
17520;SDS011;8878;-33.370;-70.552;2022-09-11T06:24:15;5.90;;;2.93;;
17520;SDS011;8878;-33.370;-70.552;2022-09-11T06:26:44;16.97;;;3.33;;
17520;SDS011;8878;-33.370;-70.552;2022-09-11T06:29:14;9.80;;;3.30;;
17520;SDS011;8878;-33.370;-70.552;2022-09-11T06:31:44;6.60;;;3.70;;
17520;SDS011;8878;-33.370;-70.552;2022-09-11T06:34:16;4.27;;;3.07;;
17520;SDS011;8878;-33.370;-70.552;2022-09-11T06:36:47;7.70;;;4.17;;
17520;SDS011;8878;-33.370;-70.552;2022-09-11T06:39:17;11.33;;;4.97;;
17520;SDS011;8878;-33.370;-70.552;2022-09-11T06:41:48;8.47;;;3.90;;
17520;SDS011;8878;-33.370;-70.552;2022-09-11T06:44:18;17.63;;;4.50;;
17520;SDS011;8878;-33.370;-70.552;2022-09-11T06:46:49;4.83;;;3.93;;
17520;SDS011;8878;-33.370;-70.552;2022-09-11T06:49:18;8.90;;;3.53;;
17520;SDS011;8878;-33.370;-70.552;2022-09-11T06:51:51;5.87;;;4.77;;
17520;SDS011;8878;-33.370;-70.552;2022-09-11T06:54:20;9.53;;;3.23;;
17520;SDS011;8878;-33.370;-70.552;2022-09-11T06:56:49;5.20;;;3.83;;
17520;SDS011;8878;-33.370;-70.552;2022-09-11T06:59:19;9.63;;;5.47;;
17520;SDS011;8878;-33.370;-70.552;2022-09-11T07:01:49;8.67;;;4.47;;
17520;SDS011;8878;-33.370;-70.552;2022-09-11T07:04:19;15.47;;;4.50;;
17520;SDS011;8878;-33.370;-70.552;2022-09-11T07:06:49;7.13;;;3.93;;
17520;SDS011;8878;-33.370;-70.552;2022-09-11T07:09:20;4.13;;;3.53;;
17520;SDS011;8878;-33.370;-70.552;2022-09-11T07:11:49;6.27;;;4.00;;
17520;SDS011;8878;-33.370;-70.552;2022-09-11T07:14:18;8.30;;;4.27;;
17520;SDS011;8878;-33.370;-70.552;2022-09-11T07:16:48;6.60;;;4.47;;
17520;SDS011;8878;-33.370;-70.552;2022-09-11T07:19:20;4.33;;;3.80;;
17520;SDS011;8878;-33.370;-70.552;2022-09-11T07:21:51;2.93;;;2.67;;
17520;SDS011;8878;-33.370;-70.552;2022-09-11T07:24:21;8.17;;;3.57;;
17520;SDS011;8878;-33.370;-70.552;2022-09-11T07:26:50;2.93;;;2.37;;
17520;SDS011;8878;-33.370;-70.552;2022-09-11T07:29:20;6.53;;;4.57;;
17520;SDS011;8878;-33.370;-70.552;2022-09-11T07:31:49;4.03;;;3.30;;
17520;SDS011;8878;-33.370;-70.552;2022-09-11T07:34:20;3.87;;;3.23;;
17520;SDS011;8878;-33.370;-70.552;2022-09-11T07:36:51;7.90;;;4.13;;
17520;SDS011;8878;-33.370;-70.552;2022-09-11T07:39:21;3.73;;;3.40;;
17520;SDS011;8878;-33.370;-70.552;2022-09-11T07:41:50;5.97;;;3.63;;
17520;SDS011;8878;-33.370;-70.552;2022-09-11T07:44:19;4.23;;;3.73;;
17520;SDS011;8878;-33.370;-70.552;2022-09-11T07:46:49;3.93;;;2.27;;
17520;SDS011;8878;-33.370;-70.552;2022-09-11T07:49:18;4.67;;;3.47;;
17520;SDS011;8878;-33.370;-70.552;2022-09-11T07:51:49;5.80;;;3.53;;
17520;SDS011;8878;-33.370;-70.552;2022-09-11T07:54:20;4.03;;;3.50;;
17520;SDS011;8878;-33.370;-70.552;2022-09-11T07:56:52;14.70;;;2.87;;
17520;SDS011;8878;-33.370;-70.552;2022-09-11T07:59:21;4.83;;;3.63;;
17520;SDS011;8878;-33.370;-70.552;2022-09-11T08:01:51;7.60;;;4.13;;
17520;SDS011;8878;-33.370;-70.552;2022-09-11T08:04:20;1.50;;;1.40;;
17520;SDS011;8878;-33.370;-70.552;2022-09-11T08:06:51;2.97;;;2.67;;
17520;SDS011;8878;-33.370;-70.552;2022-09-11T08:09:21;3.67;;;2.30;;
17520;SDS011;8878;-33.370;-70.552;2022-09-11T08:11:54;1.33;;;1.30;;
17520;SDS011;8878;-33.370;-70.552;2022-09-11T08:14:25;5.50;;;1.80;;
17520;SDS011;8878;-33.370;-70.552;2022-09-11T08:16:54;2.30;;;2.10;;
17520;SDS011;8878;-33.370;-70.552;2022-09-11T08:19:24;2.43;;;2.23;;
17520;SDS011;8878;-33.370;-70.552;2022-09-11T08:21:55;4.43;;;1.57;;
17520;SDS011;8878;-33.370;-70.552;2022-09-11T08:24:24;1.60;;;1.43;;
17520;SDS011;8878;-33.370;-70.552;2022-09-11T08:26:53;0.30;;;0.30;;
17520;SDS011;8878;-33.370;-70.552;2022-09-11T08:29:23;0.40;;;0.40;;
17520;SDS011;8878;-33.370;-70.552;2022-09-11T08:31:52;0.10;;;0.10;;
17520;SDS011;8878;-33.370;-70.552;2022-09-11T08:34:21;0.10;;;0.10;;
17520;SDS011;8878;-33.370;-70.552;2022-09-11T08:36:51;0.20;;;0.20;;
17520;SDS011;8878;-33.370;-70.552;2022-09-11T08:39:22;0.30;;;0.30;;
17520;SDS011;8878;-33.370;-70.552;2022-09-11T08:41:52;0.17;;;0.17;;
17520;SDS011;8878;-33.370;-70.552;2022-09-11T08:44:25;1.03;;;0.47;;
17520;SDS011;8878;-33.370;-70.552;2022-09-11T08:47:03;0.23;;;0.23;;
17520;SDS011;8878;-33.370;-70.552;2022-09-11T08:49:36;0.57;;;0.57;;
17520;SDS011;8878;-33.370;-70.552;2022-09-11T08:52:08;4.97;;;0.63;;
17520;SDS011;8878;-33.370;-70.552;2022-09-11T08:54:42;1.10;;;1.10;;
17520;SDS011;8878;-33.370;-70.552;2022-09-11T08:57:16;0.50;;;0.50;;
17520;SDS011;8878;-33.370;-70.552;2022-09-11T08:59:57;0.67;;;0.43;;
17520;SDS011;8878;-33.370;-70.552;2022-09-11T09:02:36;0.97;;;0.97;;
17520;SDS011;8878;-33.370;-70.552;2022-09-11T09:05:19;0.37;;;0.37;;
17520;SDS011;8878;-33.370;-70.552;2022-09-11T09:10:57;2.13;;;1.30;;
17520;SDS011;8878;-33.370;-70.552;2022-09-11T09:13:50;1.27;;;1.20;;
17520;SDS011;8878;-33.370;-70.552;2022-09-11T09:16:34;0.83;;;0.53;;
17520;SDS011;8878;-33.370;-70.552;2022-09-11T09:19:12;0.90;;;0.90;;
17520;SDS011;8878;-33.370;-70.552;2022-09-11T09:21:48;0.90;;;0.70;;
17520;SDS011;8878;-33.370;-70.552;2022-09-11T09:24:25;1.27;;;0.83;;
17520;SDS011;8878;-33.370;-70.552;2022-09-11T09:27:01;0.40;;;0.40;;
17520;SDS011;8878;-33.370;-70.552;2022-09-11T09:29:34;0.90;;;0.87;;
17520;SDS011;8878;-33.370;-70.552;2022-09-11T09:32:07;0.70;;;0.70;;
17520;SDS011;8878;-33.370;-70.552;2022-09-11T09:34:41;2.17;;;0.50;;
17520;SDS011;8878;-33.370;-70.552;2022-09-11T09:37:14;0.57;;;0.57;;
17520;SDS011;8878;-33.370;-70.552;2022-09-11T09:39:47;0.77;;;0.70;;
17520;SDS011;8878;-33.370;-70.552;2022-09-11T09:45:36;0.57;;;0.57;;
17520;SDS011;8878;-33.370;-70.552;2022-09-11T09:48:09;0.97;;;0.53;;
17520;SDS011;8878;-33.370;-70.552;2022-09-11T09:50:39;0.97;;;0.97;;
17520;SDS011;8878;-33.370;-70.552;2022-09-11T09:53:15;1.33;;;0.23;;
17520;SDS011;8878;-33.370;-70.552;2022-09-11T09:55:54;2.60;;;1.03;;
17520;SDS011;8878;-33.370;-70.552;2022-09-11T09:58:26;0.43;;;0.43;;
17520;SDS011;8878;-33.370;-70.552;2022-09-11T10:01:02;1.20;;;0.33;;
17520;SDS011;8878;-33.370;-70.552;2022-09-11T10:03:33;0.47;;;0.47;;
17520;SDS011;8878;-33.370;-70.552;2022-09-11T10:06:02;0.33;;;0.33;;
17520;SDS011;8878;-33.370;-70.552;2022-09-11T10:08:34;1.10;;;0.77;;
17520;SDS011;8878;-33.370;-70.552;2022-09-11T10:11:05;0.67;;;0.67;;
17520;SDS011;8878;-33.370;-70.552;2022-09-11T10:13:35;0.27;;;0.27;;
17520;SDS011;8878;-33.370;-70.552;2022-09-11T10:16:19;1.37;;;1.27;;
17520;SDS011;8878;-33.370;-70.552;2022-09-11T10:18:50;0.80;;;0.80;;
17520;SDS011;8878;-33.370;-70.552;2022-09-11T10:21:25;0.60;;;0.60;;
17520;SDS011;8878;-33.370;-70.552;2022-09-11T10:23:58;0.20;;;0.20;;
17520;SDS011;8878;-33.370;-70.552;2022-09-11T10:26:31;0.20;;;0.20;;
17520;SDS011;8878;-33.370;-70.552;2022-09-11T10:29:10;0.30;;;0.30;;
17520;SDS011;8878;-33.370;-70.552;2022-09-11T10:31:48;1.20;;;1.10;;
17520;SDS011;8878;-33.370;-70.552;2022-09-11T10:34:21;0.57;;;0.57;;
17520;SDS011;8878;-33.370;-70.552;2022-09-11T10:36:52;1.50;;;0.50;;
17520;SDS011;8878;-33.370;-70.552;2022-09-11T10:39:23;3.20;;;0.43;;
17520;SDS011;8878;-33.370;-70.552;2022-09-11T10:41:55;0.97;;;0.57;;
17520;SDS011;8878;-33.370;-70.552;2022-09-11T10:44:30;0.63;;;0.33;;
17520;SDS011;8878;-33.370;-70.552;2022-09-11T10:47:04;0.83;;;0.40;;
17520;SDS011;8878;-33.370;-70.552;2022-09-11T10:49:43;0.77;;;0.47;;
17520;SDS011;8878;-33.370;-70.552;2022-09-11T10:52:16;0.20;;;0.20;;
17520;SDS011;8878;-33.370;-70.552;2022-09-11T10:54:54;0.73;;;0.27;;
17520;SDS011;8878;-33.370;-70.552;2022-09-11T10:57:30;0.03;;;0.03;;
17520;SDS011;8878;-33.370;-70.552;2022-09-11T11:00:11;0.70;;;0.70;;
17520;SDS011;8878;-33.370;-70.552;2022-09-11T11:02:46;0.97;;;0.77;;
17520;SDS011;8878;-33.370;-70.552;2022-09-11T11:05:20;0.37;;;0.30;;
17520;SDS011;8878;-33.370;-70.552;2022-09-11T11:08:02;0.20;;;0.20;;
17520;SDS011;8878;-33.370;-70.552;2022-09-11T11:10:48;0.20;;;0.20;;
17520;SDS011;8878;-33.370;-70.552;2022-09-11T11:13:35;0.10;;;0.10;;
17520;SDS011;8878;-33.370;-70.552;2022-09-11T11:16:16;0.33;;;0.33;;
17520;SDS011;8878;-33.370;-70.552;2022-09-11T11:19:01;0.10;;;0.10;;
17520;SDS011;8878;-33.370;-70.552;2022-09-11T11:21:47;0.40;;;0.40;;
17520;SDS011;8878;-33.370;-70.552;2022-09-11T11:24:27;0.83;;;0.30;;
17520;SDS011;8878;-33.370;-70.552;2022-09-11T11:27:18;0.27;;;0.23;;
17520;SDS011;8878;-33.370;-70.552;2022-09-11T11:30:00;0.47;;;0.47;;
17520;SDS011;8878;-33.370;-70.552;2022-09-11T11:32:40;0.30;;;0.30;;
17520;SDS011;8878;-33.370;-70.552;2022-09-11T11:35:26;0.20;;;0.20;;
17520;SDS011;8878;-33.370;-70.552;2022-09-11T11:38:02;0.67;;;0.67;;
17520;SDS011;8878;-33.370;-70.552;2022-09-11T11:40:39;0.17;;;0.17;;
17520;SDS011;8878;-33.370;-70.552;2022-09-11T11:43:11;1.50;;;0.40;;
17520;SDS011;8878;-33.370;-70.552;2022-09-11T11:45:43;1.40;;;0.40;;
17520;SDS011;8878;-33.370;-70.552;2022-09-11T11:48:15;0.93;;;0.87;;
17520;SDS011;8878;-33.370;-70.552;2022-09-11T11:50:52;0.77;;;0.77;;
17520;SDS011;8878;-33.370;-70.552;2022-09-11T11:53:23;0.77;;;0.77;;
17520;SDS011;8878;-33.370;-70.552;2022-09-11T11:55:59;6.53;;;1.93;;
17520;SDS011;8878;-33.370;-70.552;2022-09-11T11:58:39;1.17;;;1.17;;
17520;SDS011;8878;-33.370;-70.552;2022-09-11T12:01:16;2.77;;;1.50;;
17520;SDS011;8878;-33.370;-70.552;2022-09-11T12:03:55;2.77;;;1.20;;
17520;SDS011;8878;-33.370;-70.552;2022-09-11T12:06:31;2.43;;;1.40;;
17520;SDS011;8878;-33.370;-70.552;2022-09-11T12:09:00;5.80;;;1.20;;
17520;SDS011;8878;-33.370;-70.552;2022-09-11T12:11:31;1.00;;;0.93;;
17520;SDS011;8878;-33.370;-70.552;2022-09-11T12:14:04;1.23;;;1.03;;
17520;SDS011;8878;-33.370;-70.552;2022-09-11T12:16:34;1.60;;;1.20;;
17520;SDS011;8878;-33.370;-70.552;2022-09-11T12:19:13;1.50;;;1.40;;
17520;SDS011;8878;-33.370;-70.552;2022-09-11T12:22:09;1.20;;;1.00;;
17520;SDS011;8878;-33.370;-70.552;2022-09-11T12:24:50;1.70;;;0.60;;
17520;SDS011;8878;-33.370;-70.552;2022-09-11T12:30:24;1.40;;;0.70;;
17520;SDS011;8878;-33.370;-70.552;2022-09-11T12:32:55;1.20;;;1.10;;
17520;SDS011;8878;-33.370;-70.552;2022-09-11T12:35:31;0.70;;;0.70;;
17520;SDS011;8878;-33.370;-70.552;2022-09-11T12:38:15;1.13;;;0.87;;
17520;SDS011;8878;-33.370;-70.552;2022-09-11T12:40:52;0.73;;;0.73;;
17520;SDS011;8878;-33.370;-70.552;2022-09-11T12:43:28;0.83;;;0.83;;
17520;SDS011;8878;-33.370;-70.552;2022-09-11T12:49:14;0.40;;;0.40;;
17520;SDS011;8878;-33.370;-70.552;2022-09-11T12:51:49;0.27;;;0.27;;
17520;SDS011;8878;-33.370;-70.552;2022-09-11T12:54:24;0.53;;;0.53;;
17520;SDS011;8878;-33.370;-70.552;2022-09-11T12:56:58;0.47;;;0.47;;
17520;SDS011;8878;-33.370;-70.552;2022-09-11T12:59:30;0.50;;;0.50;;
17520;SDS011;8878;-33.370;-70.552;2022-09-11T13:02:02;0.83;;;0.83;;
17520;SDS011;8878;-33.370;-70.552;2022-09-11T13:04:47;0.47;;;0.47;;
17520;SDS011;8878;-33.370;-70.552;2022-09-11T13:07:21;0.63;;;0.63;;
17520;SDS011;8878;-33.370;-70.552;2022-09-11T13:09:59;1.57;;;1.10;;
17520;SDS011;8878;-33.370;-70.552;2022-09-11T13:15:31;1.20;;;0.97;;
17520;SDS011;8878;-33.370;-70.552;2022-09-11T13:21:00;1.20;;;1.10;;
17520;SDS011;8878;-33.370;-70.552;2022-09-11T13:23:39;1.13;;;0.63;;
17520;SDS011;8878;-33.370;-70.552;2022-09-11T13:26:13;0.83;;;0.80;;
17520;SDS011;8878;-33.370;-70.552;2022-09-11T13:28:49;0.30;;;0.30;;
17520;SDS011;8878;-33.370;-70.552;2022-09-11T13:31:24;0.70;;;0.50;;
17520;SDS011;8878;-33.370;-70.552;2022-09-11T13:34:11;0.77;;;0.77;;
17520;SDS011;8878;-33.370;-70.552;2022-09-11T13:36:42;0.60;;;0.60;;
17520;SDS011;8878;-33.370;-70.552;2022-09-11T13:39:13;0.87;;;0.60;;
17520;SDS011;8878;-33.370;-70.552;2022-09-11T13:41:48;0.97;;;0.87;;
17520;SDS011;8878;-33.370;-70.552;2022-09-11T13:44:26;1.47;;;1.17;;
17520;SDS011;8878;-33.370;-70.552;2022-09-11T13:47:04;1.60;;;0.83;;
17520;SDS011;8878;-33.370;-70.552;2022-09-11T13:49:44;0.30;;;0.30;;
17520;SDS011;8878;-33.370;-70.552;2022-09-11T13:52:16;0.77;;;0.77;;
17520;SDS011;8878;-33.370;-70.552;2022-09-11T13:54:48;1.03;;;1.03;;
17520;SDS011;8878;-33.370;-70.552;2022-09-11T13:57:21;1.30;;;0.80;;
17520;SDS011;8878;-33.370;-70.552;2022-09-11T13:59:53;2.90;;;0.77;;
17520;SDS011;8878;-33.370;-70.552;2022-09-11T14:05:22;1.50;;;1.33;;
17520;SDS011;8878;-33.370;-70.552;2022-09-11T14:07:57;1.43;;;1.33;;
17520;SDS011;8878;-33.370;-70.552;2022-09-11T14:10:29;0.47;;;0.43;;
17520;SDS011;8878;-33.370;-70.552;2022-09-11T14:13:12;0.80;;;0.80;;
17520;SDS011;8878;-33.370;-70.552;2022-09-11T14:15:48;1.90;;;1.07;;
17520;SDS011;8878;-33.370;-70.552;2022-09-11T14:18:23;0.57;;;0.57;;
17520;SDS011;8878;-33.370;-70.552;2022-09-11T14:20:57;1.50;;;0.80;;
17520;SDS011;8878;-33.370;-70.552;2022-09-11T14:23:33;0.40;;;0.40;;
17520;SDS011;8878;-33.370;-70.552;2022-09-11T14:26:10;0.53;;;0.53;;
17520;SDS011;8878;-33.370;-70.552;2022-09-11T14:28:44;1.70;;;0.40;;
17520;SDS011;8878;-33.370;-70.552;2022-09-11T14:31:27;0.80;;;0.80;;
17520;SDS011;8878;-33.370;-70.552;2022-09-11T14:34:14;7.43;;;1.37;;
17520;SDS011;8878;-33.370;-70.552;2022-09-11T14:36:46;2.13;;;0.97;;
17520;SDS011;8878;-33.370;-70.552;2022-09-11T14:39:27;1.43;;;1.33;;
17520;SDS011;8878;-33.370;-70.552;2022-09-11T14:42:00;2.83;;;1.67;;
17520;SDS011;8878;-33.370;-70.552;2022-09-11T14:44:32;6.97;;;1.23;;
17520;SDS011;8878;-33.370;-70.552;2022-09-11T14:47:04;1.90;;;1.77;;
17520;SDS011;8878;-33.370;-70.552;2022-09-11T14:49:34;0.83;;;0.50;;
17520;SDS011;8878;-33.370;-70.552;2022-09-11T14:52:03;0.90;;;0.73;;
17520;SDS011;8878;-33.370;-70.552;2022-09-11T14:54:33;2.53;;;0.97;;
17520;SDS011;8878;-33.370;-70.552;2022-09-11T14:57:04;1.53;;;1.43;;
17520;SDS011;8878;-33.370;-70.552;2022-09-11T14:59:41;1.37;;;1.03;;
17520;SDS011;8878;-33.370;-70.552;2022-09-11T15:02:10;1.70;;;1.30;;
17520;SDS011;8878;-33.370;-70.552;2022-09-11T15:04:42;1.27;;;1.27;;
17520;SDS011;8878;-33.370;-70.552;2022-09-11T15:07:12;1.43;;;1.07;;
17520;SDS011;8878;-33.370;-70.552;2022-09-11T15:09:43;1.00;;;1.00;;
17520;SDS011;8878;-33.370;-70.552;2022-09-11T15:12:13;1.13;;;1.13;;
17520;SDS011;8878;-33.370;-70.552;2022-09-11T15:14:44;1.87;;;1.43;;
17520;SDS011;8878;-33.370;-70.552;2022-09-11T15:17:14;1.17;;;0.83;;
17520;SDS011;8878;-33.370;-70.552;2022-09-11T15:19:45;3.57;;;1.20;;
17520;SDS011;8878;-33.370;-70.552;2022-09-11T15:22:15;0.87;;;0.87;;
17520;SDS011;8878;-33.370;-70.552;2022-09-11T15:24:45;1.73;;;1.50;;